createdAt,value
2022-12-19T00:01:41.475Z,16.83
2022-12-19T00:04:12.164Z,18.30
2022-12-19T00:06:43.415Z,17.63
2022-12-19T00:09:11.527Z,16.35
2022-12-19T00:11:39.094Z,16.52
2022-12-19T00:14:07.192Z,16.63
2022-12-19T00:16:33.972Z,16.73
2022-12-19T00:19:01.847Z,17.92
2022-12-19T00:21:34.745Z,17.50
2022-12-19T00:24:10.458Z,16.80
2022-12-19T00:26:47.713Z,16.67
2022-12-19T00:29:14.755Z,15.15
2022-12-19T00:31:41.624Z,17.30
2022-12-19T00:34:09.586Z,15.23
2022-12-19T00:36:36.387Z,15.70
2022-12-19T00:39:07.918Z,15.75
2022-12-19T00:41:40.362Z,14.23
2022-12-19T00:44:16.340Z,14.73
2022-12-19T00:46:50.271Z,14.73
2022-12-19T00:49:20.691Z,15.32
2022-12-19T00:51:47.408Z,14.57
2022-12-19T00:54:14.345Z,15.88
2022-12-19T00:56:41.815Z,15.30
2022-12-19T00:59:10.484Z,16.38
2022-12-19T01:01:41.539Z,15.80
2022-12-19T01:04:30.544Z,14.55
2022-12-19T01:07:01.906Z,15.23
2022-12-19T01:09:31.149Z,15.65
2022-12-19T01:12:16.789Z,16.10
2022-12-19T01:14:43.719Z,15.98
2022-12-19T01:17:11.048Z,15.85
2022-12-19T01:19:43.665Z,15.30
2022-12-19T01:22:12.755Z,15.18
2022-12-19T01:24:39.812Z,15.35
2022-12-19T01:27:06.533Z,15.68
2022-12-19T01:29:34.704Z,15.43
2022-12-19T01:32:04.398Z,15.13
2022-12-19T01:34:31.296Z,15.32
2022-12-19T01:36:58.090Z,15.55
2022-12-19T01:39:24.797Z,15.63
2022-12-19T01:41:54.235Z,15.77
2022-12-19T01:44:24.156Z,15.27
2022-12-19T01:46:57.655Z,15.95
2022-12-19T01:49:36.303Z,15.55
2022-12-19T01:52:08.039Z,15.73
2022-12-19T01:54:41.153Z,16.17
2022-12-19T01:57:14.012Z,14.45
2022-12-19T01:59:53.551Z,15.02
2022-12-19T02:02:33.315Z,14.82
2022-12-19T02:05:04.535Z,15.75
2022-12-19T02:07:33.293Z,16.83
2022-12-19T02:10:00.348Z,16.73
2022-12-19T02:12:31.231Z,15.80
2022-12-19T02:15:02.746Z,16.00
2022-12-19T02:18:13.662Z,14.90
2022-12-19T02:21:18.202Z,16.58
2022-12-19T02:24:26.327Z,16.00
2022-12-19T02:27:40.152Z,15.25
2022-12-19T02:30:37.628Z,15.40
2022-12-19T02:33:44.877Z,16.30
2022-12-19T02:36:22.842Z,15.52
2022-12-19T02:39:08.357Z,17.42
2022-12-19T02:41:50.757Z,16.60
2022-12-19T02:44:36.119Z,15.35
2022-12-19T02:47:06.002Z,16.00
2022-12-19T02:49:35.754Z,15.57
2022-12-19T02:52:34.488Z,15.85
2022-12-19T02:55:08.485Z,17.23
2022-12-19T03:00:20.916Z,16.42
2022-12-19T03:03:24.205Z,16.98
2022-12-19T03:06:11.364Z,17.25
2022-12-19T03:08:59.660Z,17.23
2022-12-19T03:11:33.775Z,16.83
2022-12-19T03:14:07.359Z,17.00
2022-12-19T03:16:38.334Z,16.15
2022-12-19T03:19:11.880Z,17.90
2022-12-19T03:21:46.085Z,17.40
2022-12-19T03:24:14.672Z,17.48
2022-12-19T03:27:08.050Z,18.65
2022-12-19T03:30:02.523Z,17.90
2022-12-19T03:32:31.600Z,17.10
2022-12-19T03:35:11.654Z,17.52
2022-12-19T03:37:42.197Z,18.13
2022-12-19T03:40:15.139Z,17.20
2022-12-19T03:43:03.431Z,17.50
2022-12-19T03:45:40.031Z,17.05
2022-12-19T03:48:32.987Z,17.50
2022-12-19T03:51:09.914Z,18.05
2022-12-19T03:53:54.898Z,17.50
2022-12-19T03:56:41.199Z,17.55
2022-12-19T03:59:21.155Z,17.08
2022-12-19T04:01:49.952Z,18.05
2022-12-19T04:04:17.582Z,18.67
2022-12-19T04:06:45.601Z,18.45
2022-12-19T04:09:16.744Z,18.05
2022-12-19T04:11:57.412Z,18.90
2022-12-19T04:14:33.307Z,18.83
2022-12-19T04:17:22.949Z,17.88
2022-12-19T04:20:03.267Z,17.83
2022-12-19T04:22:50.799Z,17.88
2022-12-19T04:25:29.501Z,17.85
2022-12-19T04:28:05.862Z,17.60
2022-12-19T04:30:36.534Z,17.13
2022-12-19T04:33:04.312Z,19.15
2022-12-19T04:35:31.579Z,18.25
2022-12-19T04:37:58.424Z,17.75
2022-12-19T04:40:25.201Z,18.08
2022-12-19T04:42:51.916Z,18.20
2022-12-19T04:45:18.723Z,19.48
2022-12-19T04:47:45.745Z,17.95
2022-12-19T04:50:12.489Z,18.33
2022-12-19T04:52:39.227Z,18.83
2022-12-19T04:55:06.799Z,18.67
2022-12-19T04:57:33.587Z,18.10
2022-12-19T05:00:01.320Z,17.73
2022-12-19T05:02:28.351Z,17.08
2022-12-19T05:04:55.244Z,18.05
2022-12-19T05:07:22.094Z,18.40
2022-12-19T05:09:48.897Z,19.40
2022-12-19T05:12:15.684Z,18.55
2022-12-19T05:14:43.048Z,18.23
2022-12-19T05:17:09.776Z,18.45
2022-12-19T05:19:36.663Z,18.65
2022-12-19T05:22:04.086Z,17.35
2022-12-19T05:24:31.197Z,20.33
2022-12-19T05:26:58.130Z,18.55
2022-12-19T05:29:24.862Z,17.73
2022-12-19T05:31:52.272Z,17.73
2022-12-19T05:34:18.989Z,17.98
2022-12-19T05:36:46.630Z,18.33
2022-12-19T05:39:13.386Z,19.30
2022-12-19T05:41:40.093Z,19.30
2022-12-19T05:44:06.803Z,19.02
2022-12-19T05:46:33.509Z,18.67
2022-12-19T05:49:00.246Z,19.67
2022-12-19T05:51:27.430Z,18.48
2022-12-19T05:53:54.142Z,19.45
2022-12-19T05:56:23.085Z,19.70
2022-12-19T05:58:50.527Z,18.67
2022-12-19T06:01:24.819Z,18.48
2022-12-19T06:03:53.371Z,18.23
2022-12-19T06:06:24.533Z,18.17
2022-12-19T06:08:56.411Z,18.85
2022-12-19T06:11:24.092Z,18.15
2022-12-19T06:13:51.302Z,17.35
2022-12-19T06:16:21.483Z,19.00
2022-12-19T06:18:48.371Z,19.10
2022-12-19T06:21:19.351Z,17.25
2022-12-19T06:23:47.067Z,17.15
2022-12-19T06:26:19.967Z,17.13
2022-12-19T06:28:52.719Z,18.70
2022-12-19T06:31:23.014Z,18.33
2022-12-19T06:33:50.258Z,17.25
2022-12-19T06:36:27.046Z,19.77
2022-12-19T06:38:55.825Z,17.98
2022-12-19T06:41:41.150Z,17.83
2022-12-19T06:44:11.635Z,17.85
2022-12-19T06:46:40.584Z,18.42
2022-12-19T06:49:08.598Z,16.88
2022-12-19T06:51:36.035Z,16.88
2022-12-19T06:54:02.798Z,19.48
2022-12-19T06:56:37.709Z,18.60
2022-12-19T06:59:06.053Z,18.13
2022-12-19T07:01:52.453Z,17.63
2022-12-19T07:04:47.042Z,16.48
2022-12-19T07:07:14.465Z,17.00
2022-12-19T07:09:41.430Z,17.00
2022-12-19T07:12:08.286Z,15.90
2022-12-19T07:14:35.040Z,16.55
2022-12-19T07:17:03.628Z,16.48
2022-12-19T07:19:32.836Z,16.83
2022-12-19T07:22:02.173Z,16.23
2022-12-19T07:24:29.875Z,17.58
2022-12-19T07:26:56.844Z,17.77
2022-12-19T07:29:23.579Z,17.95
2022-12-19T07:31:50.350Z,21.00
2022-12-19T07:34:17.176Z,19.48
2022-12-19T07:36:43.910Z,19.08
2022-12-19T07:39:10.831Z,17.55
2022-12-19T07:41:38.557Z,18.10
2022-12-19T07:44:07.139Z,17.35
2022-12-19T07:46:34.210Z,17.42
2022-12-19T07:49:01.145Z,16.73
2022-12-19T07:51:29.167Z,16.17
2022-12-19T07:53:55.980Z,14.82
2022-12-19T07:56:22.747Z,16.08
2022-12-19T07:58:49.811Z,16.02
2022-12-19T08:01:16.578Z,16.65
2022-12-19T08:03:43.533Z,16.10
2022-12-19T08:06:10.651Z,14.68
2022-12-19T08:08:37.784Z,16.25
2022-12-19T08:11:19.322Z,16.25
2022-12-19T08:13:47.999Z,16.05
2022-12-19T08:16:15.204Z,17.05
2022-12-19T08:18:42.156Z,16.05
2022-12-19T08:21:10.465Z,17.10
2022-12-19T08:23:38.791Z,16.55
2022-12-19T08:26:11.611Z,17.15
2022-12-19T08:28:38.909Z,15.90
2022-12-19T08:31:17.948Z,15.88
2022-12-19T08:33:45.574Z,15.43
2022-12-19T08:36:16.048Z,15.07
2022-12-19T08:38:42.770Z,14.40
2022-12-19T08:41:09.931Z,14.75
2022-12-19T08:43:37.164Z,14.98
2022-12-19T08:46:04.975Z,14.25
2022-12-19T08:48:33.758Z,14.10
2022-12-19T08:51:05.330Z,15.98
2022-12-19T08:53:37.315Z,16.30
2022-12-19T08:56:19.342Z,15.15
2022-12-19T08:58:47.192Z,15.98
2022-12-19T09:01:19.247Z,16.20
2022-12-19T09:04:29.445Z,16.35
2022-12-19T09:06:33.947Z,16.60
2022-12-19T09:09:01.037Z,16.70
2022-12-19T09:11:27.902Z,15.75
2022-12-19T09:13:57.528Z,15.52
2022-12-19T09:16:27.967Z,15.25
2022-12-19T09:18:58.558Z,15.95
2022-12-19T09:21:29.336Z,16.20
2022-12-19T09:24:07.123Z,16.55
2022-12-19T09:26:35.607Z,17.13
2022-12-19T09:29:03.601Z,15.68
2022-12-19T09:31:35.004Z,16.92
2022-12-19T09:34:02.977Z,17.20
2022-12-19T09:36:29.744Z,15.15
2022-12-19T09:38:58.594Z,16.08
2022-12-19T09:42:07.991Z,15.48
2022-12-19T09:45:32.386Z,15.98
2022-12-19T09:48:01.969Z,17.17
2022-12-19T09:50:54.347Z,14.50
2022-12-19T09:53:38.184Z,15.82
2022-12-19T09:56:15.333Z,14.60
2022-12-19T09:58:53.223Z,15.23
2022-12-19T10:01:29.609Z,15.45
2022-12-19T10:04:18.347Z,15.80
2022-12-19T10:07:11.876Z,15.13
2022-12-19T10:11:53.888Z,15.50
2022-12-19T10:12:51.384Z,16.80
2022-12-19T10:15:57.421Z,16.08
2022-12-19T10:18:35.610Z,14.80
2022-12-19T10:22:16.228Z,14.38
2022-12-19T10:25:12.911Z,14.88
2022-12-19T10:28:10.195Z,14.50
2022-12-19T10:31:09.896Z,15.32
2022-12-19T10:33:55.811Z,16.33
2022-12-19T10:36:48.864Z,16.75
2022-12-19T10:39:33.419Z,17.20
2022-12-19T10:42:18.657Z,16.00
2022-12-19T10:44:48.132Z,14.95
2022-12-19T10:47:17.511Z,14.73
2022-12-19T10:49:44.317Z,15.95
2022-12-19T10:52:12.674Z,14.73
2022-12-19T10:54:42.852Z,15.55
2022-12-19T10:57:30.397Z,17.27
2022-12-19T11:00:09.655Z,16.17
2022-12-19T11:02:47.137Z,14.65
2022-12-19T11:05:39.231Z,15.90
2022-12-19T11:08:08.801Z,15.15
2022-12-19T11:12:38.585Z,15.13
2022-12-19T11:19:37.112Z,13.32
2022-12-19T11:29:44.436Z,14.68
2022-12-19T11:29:45.132Z,15.43
2022-12-19T11:29:54.648Z,13.98
2022-12-19T11:30:45.316Z,15.40
2022-12-19T11:32:32.028Z,15.70
2022-12-19T11:34:23.823Z,14.68
2022-12-19T11:37:19.624Z,15.35
2022-12-19T11:39:56.253Z,15.00
2022-12-19T11:43:25.495Z,13.85
2022-12-19T11:46:28.243Z,14.38
2022-12-19T11:49:43.834Z,14.02
2022-12-19T11:53:14.668Z,13.48
2022-12-19T11:55:59.185Z,14.18
2022-12-19T11:58:29.872Z,13.70
2022-12-19T12:01:09.232Z,13.40
2022-12-19T12:04:12.512Z,13.75
2022-12-19T12:06:53.034Z,13.55
2022-12-19T12:13:52.005Z,14.23
2022-12-19T12:16:18.589Z,11.82
2022-12-19T12:31:04.789Z,13.68
2022-12-19T12:31:31.134Z,13.55
2022-12-19T12:31:31.852Z,13.07
2022-12-19T12:31:46.929Z,12.45
2022-12-19T12:32:03.001Z,13.95
2022-12-19T12:35:51.513Z,13.02
2022-12-19T12:42:04.715Z,13.10
2022-12-19T12:47:27.836Z,11.93
2022-12-19T12:50:05.480Z,11.45
2022-12-19T12:52:47.857Z,12.32
2022-12-19T12:55:32.453Z,12.40
2022-12-19T12:57:59.712Z,12.75
2022-12-19T13:00:34.655Z,12.52
2022-12-19T13:03:09.399Z,12.82
2022-12-19T13:05:41.076Z,12.57
2022-12-19T13:08:49.971Z,10.65
2022-12-19T13:11:37.920Z,10.90
2022-12-19T13:14:26.450Z,10.63
2022-12-19T13:16:54.417Z,11.65
2022-12-19T13:19:32.730Z,11.27
2022-12-19T13:22:05.482Z,10.82
2022-12-19T13:24:51.642Z,11.85
2022-12-19T13:27:22.412Z,11.00
2022-12-19T13:30:01.139Z,11.95
2022-12-19T13:32:52.902Z,10.90
2022-12-19T13:37:55.693Z,10.55
2022-12-19T13:40:02.345Z,11.80
2022-12-19T13:41:49.015Z,11.45
2022-12-19T13:44:21.901Z,11.23
2022-12-19T13:46:49.602Z,10.68
2022-12-19T13:49:34.290Z,11.40
2022-12-19T13:52:04.975Z,11.52
2022-12-19T13:54:45.472Z,11.70
2022-12-19T13:57:28.733Z,11.65
2022-12-19T14:00:01.784Z,11.57
2022-12-19T14:02:43.715Z,11.95
2022-12-19T14:06:14.446Z,10.40
2022-12-19T14:08:21.485Z,10.40
2022-12-19T14:11:34.077Z,11.43
2022-12-19T14:14:28.176Z,12.30
2022-12-19T14:17:05.020Z,11.10
2022-12-19T14:19:40.419Z,11.68
2022-12-19T14:22:26.356Z,11.65
2022-12-19T14:25:52.321Z,11.02
2022-12-19T14:28:25.550Z,11.18
2022-12-19T14:31:00.766Z,11.27
2022-12-19T14:33:54.257Z,10.93
2022-12-19T14:36:30.747Z,11.70
2022-12-19T14:39:23.670Z,12.10
2022-12-19T14:42:08.521Z,11.15
2022-12-19T14:52:35.432Z,12.32
2022-12-19T14:54:11.644Z,11.15
2022-12-19T14:54:17.437Z,10.70
2022-12-19T14:54:31.209Z,12.10
2022-12-19T14:59:21.427Z,11.27
2022-12-19T15:01:55.845Z,11.10
2022-12-19T15:04:52.314Z,10.77
2022-12-19T15:07:23.762Z,11.10
2022-12-19T15:11:07.400Z,10.48
2022-12-19T15:14:49.012Z,11.27
2022-12-19T15:16:36.047Z,10.77
2022-12-19T15:19:10.890Z,10.93
2022-12-19T15:21:37.631Z,11.18
2022-12-19T15:24:04.587Z,11.98
2022-12-19T15:26:36.156Z,11.00
2022-12-19T15:29:14.090Z,12.38
2022-12-19T15:31:46.555Z,11.80
2022-12-19T15:34:40.149Z,11.82
2022-12-19T15:37:14.842Z,12.15
2022-12-19T15:39:43.069Z,11.98
2022-12-19T15:42:24.406Z,12.23
2022-12-19T15:44:53.925Z,11.45
2022-12-19T15:47:31.977Z,10.70
2022-12-19T15:50:02.561Z,11.30
2022-12-19T15:52:30.141Z,12.15
2022-12-19T15:54:57.408Z,12.23
2022-12-19T15:57:41.991Z,11.98
2022-12-19T16:00:16.232Z,11.05
2022-12-19T16:03:21.190Z,10.35
2022-12-19T16:05:29.955Z,10.70
2022-12-19T16:07:58.773Z,11.43
2022-12-19T16:10:26.513Z,11.73
2022-12-19T16:12:57.351Z,11.23
2022-12-19T16:15:33.560Z,11.65
2022-12-19T16:18:03.080Z,12.05
2022-12-19T16:20:36.083Z,10.82
2022-12-19T16:23:02.972Z,11.77
2022-12-19T16:25:42.505Z,11.07
2022-12-19T16:28:19.616Z,11.23
2022-12-19T16:30:47.299Z,11.27
2022-12-19T16:33:24.861Z,11.23
2022-12-19T16:36:04.247Z,10.80
2022-12-19T16:38:33.226Z,11.07
2022-12-19T16:41:01.496Z,11.52
2022-12-19T16:43:38.435Z,11.60
2022-12-19T16:46:07.963Z,13.15
2022-12-19T16:48:38.048Z,12.05
2022-12-19T16:51:04.926Z,11.57
2022-12-19T16:53:31.643Z,12.35
2022-12-19T16:56:00.747Z,11.45
2022-12-19T16:58:29.493Z,11.98
2022-12-19T17:00:57.004Z,11.27
2022-12-19T17:03:41.412Z,11.70
2022-12-19T17:06:15.191Z,11.02
2022-12-19T17:08:42.516Z,12.25
2022-12-19T17:11:20.323Z,12.73
2022-12-19T17:13:52.243Z,12.38
2022-12-19T17:16:19.516Z,11.73
2022-12-19T17:18:47.232Z,12.38
2022-12-19T17:21:21.768Z,12.00
2022-12-19T17:23:50.429Z,10.75
2022-12-19T17:26:18.449Z,10.52
2022-12-19T17:28:48.167Z,10.48
2022-12-19T17:31:29.025Z,12.02
2022-12-19T17:33:58.977Z,11.18
2022-12-19T17:36:36.767Z,11.27
2022-12-19T17:39:24.195Z,11.70
2022-12-19T17:41:52.309Z,10.90
2022-12-19T17:44:19.390Z,11.30
2022-12-19T17:46:47.573Z,11.15
2022-12-19T17:49:21.653Z,13.05
2022-12-19T17:51:52.340Z,11.45
2022-12-19T17:54:20.874Z,11.75
2022-12-19T17:56:47.854Z,10.95
2022-12-19T17:59:14.691Z,11.48
2022-12-19T18:01:43.710Z,11.38
2022-12-19T18:04:20.769Z,11.23
2022-12-19T18:06:47.857Z,10.50
2022-12-19T18:09:20.458Z,11.90
2022-12-19T18:11:49.244Z,11.38
2022-12-19T18:14:16.756Z,11.60
2022-12-19T18:16:45.426Z,11.27
2022-12-19T18:19:25.145Z,10.95
2022-12-19T18:21:51.987Z,11.15
2022-12-19T18:24:18.732Z,11.88
2022-12-19T18:26:45.616Z,11.40
2022-12-19T18:29:12.727Z,11.77
2022-12-19T18:31:43.607Z,11.82
2022-12-19T18:34:25.369Z,11.05
2022-12-19T18:36:53.433Z,11.02
2022-12-19T18:39:27.764Z,10.55
2022-12-19T18:41:54.876Z,10.95
2022-12-19T18:44:23.051Z,10.82
2022-12-19T18:46:51.834Z,11.38
2022-12-19T18:49:19.911Z,10.68
2022-12-19T18:51:47.040Z,10.55
2022-12-19T18:54:21.211Z,10.32
2022-12-19T18:56:48.310Z,10.48
2022-12-19T18:59:15.064Z,10.85
2022-12-19T19:01:46.576Z,11.32
2022-12-19T19:04:17.535Z,11.05
2022-12-19T19:06:51.581Z,10.90
2022-12-19T19:09:20.393Z,10.60
2022-12-19T19:11:47.180Z,11.52
2022-12-19T19:14:14.465Z,12.55
2022-12-19T19:16:41.528Z,11.50
2022-12-19T19:19:13.803Z,11.05
2022-12-19T19:21:41.618Z,11.60
2022-12-19T19:24:17.922Z,12.20
2022-12-19T19:26:44.804Z,11.65
2022-12-19T19:29:13.555Z,10.45
2022-12-19T19:31:44.730Z,11.77
2022-12-19T19:34:21.809Z,11.63
2022-12-19T19:36:55.844Z,11.15
2022-12-19T19:41:50.232Z,10.27
2022-12-19T19:44:16.984Z,10.07
2022-12-19T19:46:43.872Z,10.85
2022-12-19T19:49:10.639Z,10.65
2022-12-19T19:51:37.491Z,10.25
2022-12-19T19:54:04.629Z,10.15
2022-12-19T19:56:32.287Z,11.15
2022-12-19T19:59:00.606Z,10.77
2022-12-19T20:01:27.561Z,9.93
2022-12-19T20:03:54.487Z,11.05
2022-12-19T20:06:21.312Z,11.63
2022-12-19T20:08:48.196Z,11.23
2022-12-19T20:11:15.330Z,11.88
2022-12-19T20:13:42.247Z,9.98
2022-12-19T20:16:17.915Z,10.68
2022-12-19T20:18:52.733Z,10.55
2022-12-19T20:21:20.361Z,10.27
2022-12-19T20:23:47.470Z,10.93
2022-12-19T20:26:16.446Z,10.80
2022-12-19T20:28:49.022Z,11.30
2022-12-19T20:31:19.261Z,10.90
2022-12-19T20:33:46.713Z,10.93
2022-12-19T20:36:14.276Z,10.25
2022-12-19T20:38:42.623Z,10.43
2022-12-19T20:41:09.376Z,10.68
2022-12-19T20:43:38.262Z,10.85
2022-12-19T20:46:09.699Z,10.88
2022-12-19T20:48:37.215Z,9.55
2022-12-19T20:51:05.511Z,11.02
2022-12-19T20:53:34.904Z,10.75
2022-12-19T20:56:06.543Z,9.98
2022-12-19T20:58:36.808Z,10.98
2022-12-19T21:01:09.671Z,10.23
2022-12-19T21:03:37.975Z,9.88
2022-12-19T21:06:07.260Z,10.10
2022-12-19T21:08:35.344Z,9.52
2022-12-19T21:11:03.641Z,10.57
2022-12-19T21:13:30.497Z,9.57
2022-12-19T21:16:06.885Z,9.35
2022-12-19T21:18:35.176Z,9.30
2022-12-19T21:21:03.496Z,10.05
2022-12-19T21:23:30.477Z,8.82
2022-12-19T21:26:00.320Z,10.13
2022-12-19T21:28:27.372Z,10.18
2022-12-19T21:31:12.109Z,9.75
2022-12-19T21:33:38.919Z,9.75
2022-12-19T21:36:09.242Z,10.38
2022-12-19T21:38:37.748Z,9.65
2022-12-19T21:41:07.377Z,10.00
2022-12-19T21:43:35.737Z,10.13
2022-12-19T21:46:15.683Z,10.95
2022-12-19T21:48:46.875Z,9.95
2022-12-19T21:51:15.114Z,10.63
2022-12-19T21:53:42.394Z,10.10
2022-12-19T21:56:32.625Z,10.43
2022-12-19T21:59:03.675Z,10.00
2022-12-19T22:01:31.702Z,9.98
2022-12-19T22:04:07.977Z,11.20
2022-12-19T22:06:37.232Z,10.77
2022-12-19T22:09:07.224Z,10.77
2022-12-19T22:11:35.809Z,10.90
2022-12-19T22:14:05.140Z,10.65
2022-12-19T22:16:33.196Z,11.23
2022-12-19T22:19:00.737Z,11.43
2022-12-19T22:21:28.050Z,11.60
2022-12-19T22:24:03.095Z,10.75
2022-12-19T22:26:31.996Z,11.50
2022-12-19T22:28:59.330Z,11.13
2022-12-19T22:31:30.359Z,11.77
2022-12-19T22:34:00.725Z,11.68
2022-12-19T22:36:31.321Z,10.73
2022-12-19T22:39:01.351Z,11.32
2022-12-19T22:41:29.389Z,11.65
2022-12-19T22:43:56.608Z,11.95
2022-12-19T22:46:30.429Z,11.68
2022-12-19T22:49:01.542Z,11.73
2022-12-19T22:51:31.199Z,11.32
2022-12-19T22:53:59.454Z,11.88
2022-12-19T22:56:29.365Z,11.40
2022-12-19T22:59:00.358Z,11.98
2022-12-19T23:01:29.553Z,10.77
2022-12-19T23:03:58.845Z,12.05
2022-12-19T23:06:29.119Z,11.98
2022-12-19T23:08:56.172Z,11.30
2022-12-19T23:11:29.449Z,11.52
2022-12-19T23:13:56.168Z,11.25
2022-12-19T23:16:22.904Z,11.88
2022-12-19T23:18:50.102Z,11.32
2022-12-19T23:21:21.474Z,11.40
2022-12-19T23:23:52.167Z,11.70
2022-12-19T23:26:26.383Z,11.73
2022-12-19T23:28:57.724Z,10.63
2022-12-19T23:31:25.631Z,11.20
2022-12-19T23:33:52.747Z,12.07
2022-12-19T23:36:38.163Z,11.80
2022-12-19T23:39:06.727Z,10.82
2022-12-19T23:41:33.545Z,10.30
2022-12-19T23:44:00.430Z,11.20
2022-12-19T23:46:27.999Z,10.93
2022-12-19T23:48:55.750Z,11.07
2022-12-19T23:51:26.474Z,11.10
2022-12-19T23:53:56.996Z,10.45
2022-12-19T23:56:29.942Z,10.95
2022-12-19T23:58:57.452Z,10.52
